sensor_id;sensor_type;location;lat;lon;timestamp;P1;durP1;ratioP1;P2;durP2;ratioP2
62711;SDS011;48772;55.586;37.730;2023-04-06T00:01:50;8.60;;;4.70;;
62711;SDS011;48772;55.586;37.730;2023-04-06T00:04:15;8.27;;;4.82;;
62711;SDS011;48772;55.586;37.730;2023-04-06T00:06:41;7.57;;;4.78;;
62711;SDS011;48772;55.586;37.730;2023-04-06T00:09:07;8.13;;;4.63;;
62711;SDS011;48772;55.586;37.730;2023-04-06T00:11:33;10.35;;;5.00;;
62711;SDS011;48772;55.586;37.730;2023-04-06T00:13:59;8.35;;;4.40;;
62711;SDS011;48772;55.586;37.730;2023-04-06T00:16:25;9.30;;;5.20;;
62711;SDS011;48772;55.586;37.730;2023-04-06T00:18:51;11.90;;;5.20;;
62711;SDS011;48772;55.586;37.730;2023-04-06T00:21:17;6.30;;;4.90;;
62711;SDS011;48772;55.586;37.730;2023-04-06T00:23:43;8.20;;;5.00;;
62711;SDS011;48772;55.586;37.730;2023-04-06T00:26:08;11.77;;;4.68;;
62711;SDS011;48772;55.586;37.730;2023-04-06T00:28:36;9.90;;;5.25;;
62711;SDS011;48772;55.586;37.730;2023-04-06T00:31:03;14.27;;;4.97;;
62711;SDS011;48772;55.586;37.730;2023-04-06T00:33:29;10.75;;;5.05;;
62711;SDS011;48772;55.586;37.730;2023-04-06T00:35:55;6.30;;;4.60;;
62711;SDS011;48772;55.586;37.730;2023-04-06T00:38:21;7.40;;;5.07;;
62711;SDS011;48772;55.586;37.730;2023-04-06T00:40:47;7.00;;;4.78;;
62711;SDS011;48772;55.586;37.730;2023-04-06T00:43:13;12.15;;;5.45;;
62711;SDS011;48772;55.586;37.730;2023-04-06T00:45:40;10.27;;;5.43;;
62711;SDS011;48772;55.586;37.730;2023-04-06T00:48:07;7.68;;;5.15;;
62711;SDS011;48772;55.586;37.730;2023-04-06T00:50:34;13.02;;;5.25;;
62711;SDS011;48772;55.586;37.730;2023-04-06T00:53:00;10.35;;;5.20;;
62711;SDS011;48772;55.586;37.730;2023-04-06T00:55:27;11.93;;;5.13;;
62711;SDS011;48772;55.586;37.730;2023-04-06T00:57:54;10.50;;;5.40;;
62711;SDS011;48772;55.586;37.730;2023-04-06T01:00:23;11.02;;;5.03;;
62711;SDS011;48772;55.586;37.730;2023-04-06T01:02:56;11.98;;;5.63;;
62711;SDS011;48772;55.586;37.730;2023-04-06T01:05:36;9.93;;;5.00;;
62711;SDS011;48772;55.586;37.730;2023-04-06T01:08:19;10.65;;;5.22;;
62711;SDS011;48772;55.586;37.730;2023-04-06T01:10:45;11.90;;;5.82;;
62711;SDS011;48772;55.586;37.730;2023-04-06T01:13:24;10.85;;;5.32;;
62711;SDS011;48772;55.586;37.730;2023-04-06T01:15:56;9.65;;;4.97;;
62711;SDS011;48772;55.586;37.730;2023-04-06T01:18:41;13.40;;;5.88;;
62711;SDS011;48772;55.586;37.730;2023-04-06T01:21:13;9.85;;;5.43;;
62711;SDS011;48772;55.586;37.730;2023-04-06T01:23:49;8.38;;;5.40;;
62711;SDS011;48772;55.586;37.730;2023-04-06T01:26:22;11.73;;;5.20;;
62711;SDS011;48772;55.586;37.730;2023-04-06T01:28:49;9.60;;;5.32;;
62711;SDS011;48772;55.586;37.730;2023-04-06T01:31:27;9.40;;;5.30;;
62711;SDS011;48772;55.586;37.730;2023-04-06T01:33:53;13.23;;;5.93;;
62711;SDS011;48772;55.586;37.730;2023-04-06T01:36:22;9.13;;;5.70;;
62711;SDS011;48772;55.586;37.730;2023-04-06T01:38:56;12.20;;;5.40;;
62711;SDS011;48772;55.586;37.730;2023-04-06T01:41:29;17.13;;;5.95;;
62711;SDS011;48772;55.586;37.730;2023-04-06T01:43:55;12.13;;;5.97;;
62711;SDS011;48772;55.586;37.730;2023-04-06T01:46:25;12.65;;;6.05;;
62711;SDS011;48772;55.586;37.730;2023-04-06T01:48:51;10.27;;;5.63;;
62711;SDS011;48772;55.586;37.730;2023-04-06T01:51:23;11.85;;;5.45;;
62711;SDS011;48772;55.586;37.730;2023-04-06T01:53:54;12.00;;;5.80;;
62711;SDS011;48772;55.586;37.730;2023-04-06T01:56:25;12.60;;;6.25;;
62711;SDS011;48772;55.586;37.730;2023-04-06T01:59:09;12.60;;;5.53;;
62711;SDS011;48772;55.586;37.730;2023-04-06T02:01:39;12.40;;;5.57;;
62711;SDS011;48772;55.586;37.730;2023-04-06T02:04:05;9.40;;;5.60;;
62711;SDS011;48772;55.586;37.730;2023-04-06T02:06:31;11.63;;;5.82;;
62711;SDS011;48772;55.586;37.730;2023-04-06T02:08:58;12.23;;;6.20;;
62711;SDS011;48772;55.586;37.730;2023-04-06T02:11:24;11.70;;;5.78;;
62711;SDS011;48772;55.586;37.730;2023-04-06T02:13:53;9.30;;;6.15;;
62711;SDS011;48772;55.586;37.730;2023-04-06T02:16:42;9.88;;;5.65;;
62711;SDS011;48772;55.586;37.730;2023-04-06T02:19:08;15.05;;;5.82;;
62711;SDS011;48772;55.586;37.730;2023-04-06T02:21:34;9.98;;;5.40;;
62711;SDS011;48772;55.586;37.730;2023-04-06T02:24:00;10.80;;;5.85;;
62711;SDS011;48772;55.586;37.730;2023-04-06T02:26:26;13.70;;;6.32;;
62711;SDS011;48772;55.586;37.730;2023-04-06T02:28:51;11.02;;;5.32;;
62711;SDS011;48772;55.586;37.730;2023-04-06T02:31:17;16.05;;;6.07;;
62711;SDS011;48772;55.586;37.730;2023-04-06T02:33:44;8.50;;;5.80;;
62711;SDS011;48772;55.586;37.730;2023-04-06T02:36:11;9.52;;;5.90;;
62711;SDS011;48772;55.586;37.730;2023-04-06T02:38:37;11.38;;;5.82;;
62711;SDS011;48772;55.586;37.730;2023-04-06T02:41:02;11.93;;;6.25;;
62711;SDS011;48772;55.586;37.730;2023-04-06T02:43:28;11.68;;;6.45;;
62711;SDS011;48772;55.586;37.730;2023-04-06T02:46:03;14.32;;;5.50;;
62711;SDS011;48772;55.586;37.730;2023-04-06T02:48:32;18.75;;;6.47;;
62711;SDS011;48772;55.586;37.730;2023-04-06T02:51:01;10.90;;;6.30;;
62711;SDS011;48772;55.586;37.730;2023-04-06T02:53:27;14.45;;;6.15;;
62711;SDS011;48772;55.586;37.730;2023-04-06T02:55:53;18.00;;;6.35;;
62711;SDS011;48772;55.586;37.730;2023-04-06T02:58:18;13.98;;;5.78;;
62711;SDS011;48772;55.586;37.730;2023-04-06T03:00:49;10.88;;;5.90;;
62711;SDS011;48772;55.586;37.730;2023-04-06T03:03:15;14.35;;;5.70;;
62711;SDS011;48772;55.586;37.730;2023-04-06T03:05:42;11.80;;;5.63;;
62711;SDS011;48772;55.586;37.730;2023-04-06T03:08:09;14.95;;;6.50;;
62711;SDS011;48772;55.586;37.730;2023-04-06T03:10:40;10.60;;;5.30;;
62711;SDS011;48772;55.586;37.730;2023-04-06T03:13:06;10.98;;;5.97;;
62711;SDS011;48772;55.586;37.730;2023-04-06T03:15:45;10.40;;;5.70;;
62711;SDS011;48772;55.586;37.730;2023-04-06T03:18:14;9.65;;;6.10;;
62711;SDS011;48772;55.586;37.730;2023-04-06T03:20:44;12.63;;;5.90;;
62711;SDS011;48772;55.586;37.730;2023-04-06T03:23:10;10.82;;;6.43;;
62711;SDS011;48772;55.586;37.730;2023-04-06T03:25:39;11.30;;;6.18;;
62711;SDS011;48772;55.586;37.730;2023-04-06T03:28:08;9.20;;;6.18;;
62711;SDS011;48772;55.586;37.730;2023-04-06T03:30:39;12.52;;;5.60;;
62711;SDS011;48772;55.586;37.730;2023-04-06T03:33:05;13.93;;;6.13;;
62711;SDS011;48772;55.586;37.730;2023-04-06T03:35:36;18.13;;;6.47;;
62711;SDS011;48772;55.586;37.730;2023-04-06T03:38:03;20.67;;;6.82;;
62711;SDS011;48772;55.586;37.730;2023-04-06T03:40:32;13.30;;;6.30;;
62711;SDS011;48772;55.586;37.730;2023-04-06T03:42:58;18.63;;;6.43;;
62711;SDS011;48772;55.586;37.730;2023-04-06T03:45:24;13.90;;;5.60;;
62711;SDS011;48772;55.586;37.730;2023-04-06T03:47:50;13.98;;;5.43;;
62711;SDS011;48772;55.586;37.730;2023-04-06T03:50:17;12.50;;;6.20;;
62711;SDS011;48772;55.586;37.730;2023-04-06T03:52:43;19.67;;;5.93;;
62711;SDS011;48772;55.586;37.730;2023-04-06T03:55:09;17.13;;;5.90;;
62711;SDS011;48772;55.586;37.730;2023-04-06T03:57:35;14.10;;;6.20;;
62711;SDS011;48772;55.586;37.730;2023-04-06T04:00:02;10.25;;;5.18;;
62711;SDS011;48772;55.586;37.730;2023-04-06T04:02:38;20.65;;;6.78;;
62711;SDS011;48772;55.586;37.730;2023-04-06T04:05:05;12.00;;;5.95;;
62711;SDS011;48772;55.586;37.730;2023-04-06T04:07:31;13.27;;;5.90;;
62711;SDS011;48772;55.586;37.730;2023-04-06T04:09:57;17.77;;;5.78;;
62711;SDS011;48772;55.586;37.730;2023-04-06T04:12:22;19.27;;;5.80;;
62711;SDS011;48772;55.586;37.730;2023-04-06T04:14:48;13.23;;;6.30;;
62711;SDS011;48772;55.586;37.730;2023-04-06T04:17:14;15.32;;;5.60;;
62711;SDS011;48772;55.586;37.730;2023-04-06T04:19:40;10.23;;;4.70;;
62711;SDS011;48772;55.586;37.730;2023-04-06T04:22:06;18.23;;;5.38;;
62711;SDS011;48772;55.586;37.730;2023-04-06T04:24:35;6.30;;;4.07;;
62711;SDS011;48772;55.586;37.730;2023-04-06T04:27:01;12.90;;;5.13;;
62711;SDS011;48772;55.586;37.730;2023-04-06T04:29:30;10.57;;;4.93;;
62711;SDS011;48772;55.586;37.730;2023-04-06T04:32:00;12.85;;;4.90;;
62711;SDS011;48772;55.586;37.730;2023-04-06T04:34:27;15.98;;;5.95;;
62711;SDS011;48772;55.586;37.730;2023-04-06T04:36:53;17.45;;;5.45;;
62711;SDS011;48772;55.586;37.730;2023-04-06T04:39:29;12.80;;;5.25;;
62711;SDS011;48772;55.586;37.730;2023-04-06T04:42:01;7.43;;;4.57;;
62711;SDS011;48772;55.586;37.730;2023-04-06T04:44:27;7.47;;;4.90;;
62711;SDS011;48772;55.586;37.730;2023-04-06T04:46:54;18.55;;;4.78;;
62711;SDS011;48772;55.586;37.730;2023-04-06T04:49:24;9.75;;;5.13;;
62711;SDS011;48772;55.586;37.730;2023-04-06T04:51:51;10.73;;;4.20;;
62711;SDS011;48772;55.586;37.730;2023-04-06T04:54:41;14.32;;;4.97;;
62711;SDS011;48772;55.586;37.730;2023-04-06T04:57:10;10.15;;;4.53;;
62711;SDS011;48772;55.586;37.730;2023-04-06T04:59:42;6.65;;;2.95;;
62711;SDS011;48772;55.586;37.730;2023-04-06T05:02:15;8.80;;;4.82;;
62711;SDS011;48772;55.586;37.730;2023-04-06T05:04:51;11.77;;;4.68;;
62711;SDS011;48772;55.586;37.730;2023-04-06T05:07:21;12.82;;;5.05;;
62711;SDS011;48772;55.586;37.730;2023-04-06T05:09:49;10.40;;;5.10;;
62711;SDS011;48772;55.586;37.730;2023-04-06T05:12:16;6.03;;;3.15;;
62711;SDS011;48772;55.586;37.730;2023-04-06T05:14:51;12.88;;;5.65;;
62711;SDS011;48772;55.586;37.730;2023-04-06T05:17:18;8.38;;;4.43;;
62711;SDS011;48772;55.586;37.730;2023-04-06T05:19:44;10.93;;;4.47;;
62711;SDS011;48772;55.586;37.730;2023-04-06T05:22:13;16.00;;;4.60;;
62711;SDS011;48772;55.586;37.730;2023-04-06T05:24:44;11.52;;;4.88;;
62711;SDS011;48772;55.586;37.730;2023-04-06T05:27:10;12.40;;;4.38;;
62711;SDS011;48772;55.586;37.730;2023-04-06T05:29:37;11.43;;;3.78;;
62711;SDS011;48772;55.586;37.730;2023-04-06T05:32:03;10.07;;;3.85;;
62711;SDS011;48772;55.586;37.730;2023-04-06T05:34:29;11.90;;;4.93;;
62711;SDS011;48772;55.586;37.730;2023-04-06T05:36:57;6.10;;;3.58;;
62711;SDS011;48772;55.586;37.730;2023-04-06T05:39:24;7.30;;;4.40;;
62711;SDS011;48772;55.586;37.730;2023-04-06T05:41:52;10.57;;;4.43;;
62711;SDS011;48772;55.586;37.730;2023-04-06T05:44:33;22.65;;;4.82;;
62711;SDS011;48772;55.586;37.730;2023-04-06T05:47:07;13.32;;;4.93;;
62711;SDS011;48772;55.586;37.730;2023-04-06T05:49:34;12.50;;;4.40;;
62711;SDS011;48772;55.586;37.730;2023-04-06T05:52:01;15.82;;;4.35;;
62711;SDS011;48772;55.586;37.730;2023-04-06T05:54:27;15.02;;;5.28;;
62711;SDS011;48772;55.586;37.730;2023-04-06T05:56:58;7.90;;;4.05;;
62711;SDS011;48772;55.586;37.730;2023-04-06T05:59:24;11.35;;;4.40;;
62711;SDS011;48772;55.586;37.730;2023-04-06T06:01:50;11.48;;;4.95;;
62711;SDS011;48772;55.586;37.730;2023-04-06T06:04:16;18.15;;;4.60;;
62711;SDS011;48772;55.586;37.730;2023-04-06T06:06:43;17.48;;;4.63;;
62711;SDS011;48772;55.586;37.730;2023-04-06T06:09:13;21.63;;;5.35;;
62711;SDS011;48772;55.586;37.730;2023-04-06T06:14:49;11.75;;;5.45;;
62711;SDS011;48772;55.586;37.730;2023-04-06T06:17:15;11.75;;;4.60;;
62711;SDS011;48772;55.586;37.730;2023-04-06T06:20:00;11.98;;;4.82;;
62711;SDS011;48772;55.586;37.730;2023-04-06T06:22:28;24.80;;;4.72;;
62711;SDS011;48772;55.586;37.730;2023-04-06T06:24:54;10.38;;;4.50;;
62711;SDS011;48772;55.586;37.730;2023-04-06T06:27:39;11.32;;;5.32;;
62711;SDS011;48772;55.586;37.730;2023-04-06T06:30:05;13.55;;;4.85;;
62711;SDS011;48772;55.586;37.730;2023-04-06T06:32:31;12.88;;;4.65;;
62711;SDS011;48772;55.586;37.730;2023-04-06T06:34:58;14.00;;;4.57;;
62711;SDS011;48772;55.586;37.730;2023-04-06T06:37:24;15.30;;;4.57;;
62711;SDS011;48772;55.586;37.730;2023-04-06T06:39:51;18.33;;;5.45;;
62711;SDS011;48772;55.586;37.730;2023-04-06T06:42:18;10.60;;;4.10;;
62711;SDS011;48772;55.586;37.730;2023-04-06T06:44:53;23.40;;;5.15;;
62711;SDS011;48772;55.586;37.730;2023-04-06T06:47:39;17.08;;;3.95;;
62711;SDS011;48772;55.586;37.730;2023-04-06T06:50:06;16.88;;;4.22;;
62711;SDS011;48772;55.586;37.730;2023-04-06T06:53:10;21.25;;;4.55;;
62711;SDS011;48772;55.586;37.730;2023-04-06T06:55:36;11.85;;;4.53;;
62711;SDS011;48772;55.586;37.730;2023-04-06T06:58:02;12.98;;;4.72;;
62711;SDS011;48772;55.586;37.730;2023-04-06T07:01:05;12.82;;;4.22;;
62711;SDS011;48772;55.586;37.730;2023-04-06T07:06:16;11.18;;;4.25;;
62711;SDS011;48772;55.586;37.730;2023-04-06T07:14:10;14.45;;;4.35;;
62711;SDS011;48772;55.586;37.730;2023-04-06T07:16:37;13.55;;;4.70;;
62711;SDS011;48772;55.586;37.730;2023-04-06T07:19:03;14.15;;;4.75;;
62711;SDS011;48772;55.586;37.730;2023-04-06T07:21:29;9.70;;;4.07;;
62711;SDS011;48772;55.586;37.730;2023-04-06T07:23:55;11.85;;;4.43;;
62711;SDS011;48772;55.586;37.730;2023-04-06T07:26:21;21.30;;;4.90;;
62711;SDS011;48772;55.586;37.730;2023-04-06T07:28:47;14.55;;;4.45;;
62711;SDS011;48772;55.586;37.730;2023-04-06T07:31:13;12.27;;;4.47;;
62711;SDS011;48772;55.586;37.730;2023-04-06T07:33:39;14.93;;;3.58;;
62711;SDS011;48772;55.586;37.730;2023-04-06T07:36:05;15.73;;;4.68;;
62711;SDS011;48772;55.586;37.730;2023-04-06T07:38:31;22.58;;;4.32;;
62711;SDS011;48772;55.586;37.730;2023-04-06T07:40:57;11.65;;;4.50;;
62711;SDS011;48772;55.586;37.730;2023-04-06T07:43:23;17.23;;;5.22;;
62711;SDS011;48772;55.586;37.730;2023-04-06T07:45:49;13.48;;;4.47;;
62711;SDS011;48772;55.586;37.730;2023-04-06T07:48:16;18.92;;;4.70;;
62711;SDS011;48772;55.586;37.730;2023-04-06T07:50:42;17.52;;;4.25;;
62711;SDS011;48772;55.586;37.730;2023-04-06T07:53:08;11.45;;;3.72;;
62711;SDS011;48772;55.586;37.730;2023-04-06T07:55:36;11.43;;;4.00;;
62711;SDS011;48772;55.586;37.730;2023-04-06T07:58:01;16.23;;;4.60;;
62711;SDS011;48772;55.586;37.730;2023-04-06T08:00:27;14.30;;;3.67;;
62711;SDS011;48772;55.586;37.730;2023-04-06T08:02:53;19.55;;;3.95;;
62711;SDS011;48772;55.586;37.730;2023-04-06T08:05:19;7.60;;;3.78;;
62711;SDS011;48772;55.586;37.730;2023-04-06T08:07:45;10.52;;;3.78;;
62711;SDS011;48772;55.586;37.730;2023-04-06T08:10:11;10.75;;;4.00;;
62711;SDS011;48772;55.586;37.730;2023-04-06T08:12:38;14.30;;;3.92;;
62711;SDS011;48772;55.586;37.730;2023-04-06T08:15:04;17.40;;;4.82;;
62711;SDS011;48772;55.586;37.730;2023-04-06T08:17:31;13.15;;;4.25;;
62711;SDS011;48772;55.586;37.730;2023-04-06T08:19:57;19.58;;;3.75;;
62711;SDS011;48772;55.586;37.730;2023-04-06T08:22:23;13.38;;;3.78;;
62711;SDS011;48772;55.586;37.730;2023-04-06T08:24:50;11.52;;;3.38;;
62711;SDS011;48772;55.586;37.730;2023-04-06T08:27:41;15.10;;;3.40;;
62711;SDS011;48772;55.586;37.730;2023-04-06T08:30:07;14.20;;;3.15;;
62711;SDS011;48772;55.586;37.730;2023-04-06T08:32:33;9.98;;;2.88;;
62711;SDS011;48772;55.586;37.730;2023-04-06T08:35:00;13.20;;;3.70;;
62711;SDS011;48772;55.586;37.730;2023-04-06T08:37:25;11.32;;;3.35;;
62711;SDS011;48772;55.586;37.730;2023-04-06T08:39:51;6.78;;;3.25;;
62711;SDS011;48772;55.586;37.730;2023-04-06T08:42:21;15.85;;;3.00;;
62711;SDS011;48772;55.586;37.730;2023-04-06T08:44:50;12.48;;;2.95;;
62711;SDS011;48772;55.586;37.730;2023-04-06T08:47:17;14.95;;;3.20;;
62711;SDS011;48772;55.586;37.730;2023-04-06T08:49:44;13.23;;;3.38;;
62711;SDS011;48772;55.586;37.730;2023-04-06T08:52:11;12.25;;;2.75;;
62711;SDS011;48772;55.586;37.730;2023-04-06T08:54:37;9.82;;;3.70;;
62711;SDS011;48772;55.586;37.730;2023-04-06T08:57:04;21.48;;;3.42;;
62711;SDS011;48772;55.586;37.730;2023-04-06T08:59:34;9.43;;;3.05;;
62711;SDS011;48772;55.586;37.730;2023-04-06T09:02:03;13.98;;;3.22;;
62711;SDS011;48772;55.586;37.730;2023-04-06T09:04:31;10.70;;;3.00;;
62711;SDS011;48772;55.586;37.730;2023-04-06T09:06:58;9.25;;;2.80;;
62711;SDS011;48772;55.586;37.730;2023-04-06T09:09:24;6.38;;;2.83;;
62711;SDS011;48772;55.586;37.730;2023-04-06T09:11:51;7.18;;;2.80;;
62711;SDS011;48772;55.586;37.730;2023-04-06T09:14:29;8.88;;;3.08;;
62711;SDS011;48772;55.586;37.730;2023-04-06T09:17:05;12.63;;;3.55;;
62711;SDS011;48772;55.586;37.730;2023-04-06T09:19:31;10.55;;;3.10;;
62711;SDS011;48772;55.586;37.730;2023-04-06T09:22:04;13.23;;;2.92;;
62711;SDS011;48772;55.586;37.730;2023-04-06T09:24:43;10.23;;;3.50;;
62711;SDS011;48772;55.586;37.730;2023-04-06T09:27:11;19.17;;;4.10;;
62711;SDS011;48772;55.586;37.730;2023-04-06T09:29:37;13.93;;;3.45;;
62711;SDS011;48772;55.586;37.730;2023-04-06T09:32:06;13.25;;;3.65;;
62711;SDS011;48772;55.586;37.730;2023-04-06T09:34:37;8.57;;;3.00;;
62711;SDS011;48772;55.586;37.730;2023-04-06T09:39:43;24.95;;;3.05;;
62711;SDS011;48772;55.586;37.730;2023-04-06T09:42:11;8.02;;;3.17;;
62711;SDS011;48772;55.586;37.730;2023-04-06T09:44:48;4.97;;;3.10;;
62711;SDS011;48772;55.586;37.730;2023-04-06T09:47:14;9.38;;;2.45;;
62711;SDS011;48772;55.586;37.730;2023-04-06T09:49:42;8.40;;;2.70;;
62711;SDS011;48772;55.586;37.730;2023-04-06T09:55:17;7.35;;;3.05;;
62711;SDS011;48772;55.586;37.730;2023-04-06T09:58:15;13.15;;;3.08;;
62711;SDS011;48772;55.586;37.730;2023-04-06T10:01:01;12.20;;;3.38;;
62711;SDS011;48772;55.586;37.730;2023-04-06T10:06:29;23.77;;;3.50;;
62711;SDS011;48772;55.586;37.730;2023-04-06T10:12:02;19.50;;;3.03;;
62711;SDS011;48772;55.586;37.730;2023-04-06T10:14:33;13.95;;;2.88;;
62711;SDS011;48772;55.586;37.730;2023-04-06T10:17:18;10.00;;;2.60;;
62711;SDS011;48772;55.586;37.730;2023-04-06T10:19:47;12.45;;;2.47;;
62711;SDS011;48772;55.586;37.730;2023-04-06T10:22:24;12.52;;;2.63;;
62711;SDS011;48772;55.586;37.730;2023-04-06T10:24:54;21.33;;;3.35;;
62711;SDS011;48772;55.586;37.730;2023-04-06T10:27:27;5.80;;;2.97;;
62711;SDS011;48772;55.586;37.730;2023-04-06T10:30:14;25.35;;;3.72;;
62711;SDS011;48772;55.586;37.730;2023-04-06T10:32:42;11.48;;;3.00;;
62711;SDS011;48772;55.586;37.730;2023-04-06T10:35:08;16.77;;;2.90;;
62711;SDS011;48772;55.586;37.730;2023-04-06T10:40:34;15.13;;;2.70;;
62711;SDS011;48772;55.586;37.730;2023-04-06T10:45:38;6.05;;;2.40;;
62711;SDS011;48772;55.586;37.730;2023-04-06T10:48:16;11.27;;;3.05;;
62711;SDS011;48772;55.586;37.730;2023-04-06T10:50:50;16.95;;;2.97;;
62711;SDS011;48772;55.586;37.730;2023-04-06T10:53:23;14.63;;;2.92;;
62711;SDS011;48772;55.586;37.730;2023-04-06T10:55:51;20.00;;;2.70;;
62711;SDS011;48772;55.586;37.730;2023-04-06T10:58:17;11.57;;;2.17;;
62711;SDS011;48772;55.586;37.730;2023-04-06T11:00:44;6.60;;;2.33;;
62711;SDS011;48772;55.586;37.730;2023-04-06T11:03:14;8.30;;;2.50;;
62711;SDS011;48772;55.586;37.730;2023-04-06T11:05:46;11.40;;;2.60;;
62711;SDS011;48772;55.586;37.730;2023-04-06T11:08:32;15.52;;;3.50;;
62711;SDS011;48772;55.586;37.730;2023-04-06T11:11:09;8.80;;;2.92;;
62711;SDS011;48772;55.586;37.730;2023-04-06T11:13:36;12.48;;;2.65;;
62711;SDS011;48772;55.586;37.730;2023-04-06T11:16:06;11.23;;;2.83;;
62711;SDS011;48772;55.586;37.730;2023-04-06T11:18:37;12.88;;;2.80;;
62711;SDS011;48772;55.586;37.730;2023-04-06T11:21:03;12.82;;;2.50;;
62711;SDS011;48772;55.586;37.730;2023-04-06T11:23:28;9.30;;;2.10;;
62711;SDS011;48772;55.586;37.730;2023-04-06T11:25:54;9.27;;;2.30;;
62711;SDS011;48772;55.586;37.730;2023-04-06T11:28:20;16.60;;;2.80;;
62711;SDS011;48772;55.586;37.730;2023-04-06T11:30:46;9.15;;;2.40;;
62711;SDS011;48772;55.586;37.730;2023-04-06T11:33:19;9.00;;;2.45;;
62711;SDS011;48772;55.586;37.730;2023-04-06T11:35:48;10.65;;;2.13;;
62711;SDS011;48772;55.586;37.730;2023-04-06T11:38:13;10.27;;;2.25;;
62711;SDS011;48772;55.586;37.730;2023-04-06T11:40:40;7.03;;;2.50;;
62711;SDS011;48772;55.586;37.730;2023-04-06T11:43:06;11.18;;;2.28;;
62711;SDS011;48772;55.586;37.730;2023-04-06T11:45:40;30.48;;;3.00;;
62711;SDS011;48772;55.586;37.730;2023-04-06T11:48:19;5.85;;;2.40;;
62711;SDS011;48772;55.586;37.730;2023-04-06T11:50:46;12.02;;;2.42;;
62711;SDS011;48772;55.586;37.730;2023-04-06T11:53:13;10.73;;;2.55;;
62711;SDS011;48772;55.586;37.730;2023-04-06T11:55:39;15.95;;;2.45;;
62711;SDS011;48772;55.586;37.730;2023-04-06T11:58:05;11.98;;;2.25;;
62711;SDS011;48772;55.586;37.730;2023-04-06T12:00:32;7.03;;;2.22;;
62711;SDS011;48772;55.586;37.730;2023-04-06T12:03:37;8.38;;;2.42;;
62711;SDS011;48772;55.586;37.730;2023-04-06T12:06:16;8.75;;;2.75;;
62711;SDS011;48772;55.586;37.730;2023-04-06T12:08:44;8.18;;;2.20;;
62711;SDS011;48772;55.586;37.730;2023-04-06T12:11:12;11.40;;;2.63;;
62711;SDS011;48772;55.586;37.730;2023-04-06T12:13:38;11.43;;;2.33;;
62711;SDS011;48772;55.586;37.730;2023-04-06T12:16:05;12.70;;;2.72;;
62711;SDS011;48772;55.586;37.730;2023-04-06T12:18:31;11.85;;;2.25;;
62711;SDS011;48772;55.586;37.730;2023-04-06T12:20:56;7.30;;;2.10;;
62711;SDS011;48772;55.586;37.730;2023-04-06T12:23:23;6.28;;;2.30;;
62711;SDS011;48772;55.586;37.730;2023-04-06T12:25:52;9.77;;;2.50;;
62711;SDS011;48772;55.586;37.730;2023-04-06T12:28:19;10.05;;;2.35;;
62711;SDS011;48772;55.586;37.730;2023-04-06T12:30:48;11.38;;;2.70;;
62711;SDS011;48772;55.586;37.730;2023-04-06T12:33:14;15.82;;;2.33;;
62711;SDS011;48772;55.586;37.730;2023-04-06T12:35:39;12.98;;;2.78;;
62711;SDS011;48772;55.586;37.730;2023-04-06T12:38:05;7.45;;;2.70;;
62711;SDS011;48772;55.586;37.730;2023-04-06T12:40:35;13.57;;;2.53;;
62711;SDS011;48772;55.586;37.730;2023-04-06T12:43:02;10.32;;;2.80;;
62711;SDS011;48772;55.586;37.730;2023-04-06T12:45:28;14.57;;;3.42;;
62711;SDS011;48772;55.586;37.730;2023-04-06T12:47:57;7.50;;;3.38;;
62711;SDS011;48772;55.586;37.730;2023-04-06T12:50:23;14.55;;;2.90;;
62711;SDS011;48772;55.586;37.730;2023-04-06T12:52:52;13.70;;;2.50;;
62711;SDS011;48772;55.586;37.730;2023-04-06T12:55:45;7.82;;;2.88;;
62711;SDS011;48772;55.586;37.730;2023-04-06T12:58:14;15.52;;;3.50;;
62711;SDS011;48772;55.586;37.730;2023-04-06T13:00:42;7.45;;;2.28;;
62711;SDS011;48772;55.586;37.730;2023-04-06T13:03:08;11.57;;;2.28;;
62711;SDS011;48772;55.586;37.730;2023-04-06T13:05:35;6.53;;;2.40;;
62711;SDS011;48772;55.586;37.730;2023-04-06T13:08:01;12.52;;;2.50;;
62711;SDS011;48772;55.586;37.730;2023-04-06T13:10:30;8.55;;;2.55;;
62711;SDS011;48772;55.586;37.730;2023-04-06T13:12:56;12.93;;;3.13;;
62711;SDS011;48772;55.586;37.730;2023-04-06T13:15:24;8.85;;;2.90;;
62711;SDS011;48772;55.586;37.730;2023-04-06T13:17:51;9.70;;;2.60;;
62711;SDS011;48772;55.586;37.730;2023-04-06T13:20:17;12.63;;;2.58;;
62711;SDS011;48772;55.586;37.730;2023-04-06T13:22:43;15.57;;;2.78;;
62711;SDS011;48772;55.586;37.730;2023-04-06T13:25:12;9.30;;;2.10;;
62711;SDS011;48772;55.586;37.730;2023-04-06T13:27:38;21.38;;;2.97;;
62711;SDS011;48772;55.586;37.730;2023-04-06T13:30:05;11.20;;;2.72;;
62711;SDS011;48772;55.586;37.730;2023-04-06T13:32:32;10.95;;;2.17;;
62711;SDS011;48772;55.586;37.730;2023-04-06T13:34:58;8.30;;;2.50;;
62711;SDS011;48772;55.586;37.730;2023-04-06T13:38:01;10.63;;;3.40;;
62711;SDS011;48772;55.586;37.730;2023-04-06T13:40:27;9.45;;;2.50;;
62711;SDS011;48772;55.586;37.730;2023-04-06T13:42:53;9.18;;;2.15;;
62711;SDS011;48772;55.586;37.730;2023-04-06T13:45:18;11.68;;;2.70;;
62711;SDS011;48772;55.586;37.730;2023-04-06T13:47:45;18.33;;;3.15;;
62711;SDS011;48772;55.586;37.730;2023-04-06T13:50:29;7.60;;;2.00;;
62711;SDS011;48772;55.586;37.730;2023-04-06T13:53:14;12.80;;;2.30;;
62711;SDS011;48772;55.586;37.730;2023-04-06T13:55:39;14.23;;;2.30;;
62711;SDS011;48772;55.586;37.730;2023-04-06T13:58:06;3.65;;;2.00;;
62711;SDS011;48772;55.586;37.730;2023-04-06T14:01:16;18.60;;;2.58;;
62711;SDS011;48772;55.586;37.730;2023-04-06T14:03:42;9.30;;;2.60;;
62711;SDS011;48772;55.586;37.730;2023-04-06T14:06:13;12.27;;;2.38;;
62711;SDS011;48772;55.586;37.730;2023-04-06T14:08:39;8.82;;;3.15;;
62711;SDS011;48772;55.586;37.730;2023-04-06T14:11:05;10.70;;;2.47;;
62711;SDS011;48772;55.586;37.730;2023-04-06T14:16:18;5.00;;;2.22;;
62711;SDS011;48772;55.586;37.730;2023-04-06T14:18:45;8.20;;;2.00;;
62711;SDS011;48772;55.586;37.730;2023-04-06T14:21:11;15.88;;;2.40;;
62711;SDS011;48772;55.586;37.730;2023-04-06T14:26:22;5.88;;;2.42;;
62711;SDS011;48772;55.586;37.730;2023-04-06T14:28:50;18.77;;;2.50;;
62711;SDS011;48772;55.586;37.730;2023-04-06T14:31:17;5.32;;;1.60;;
62711;SDS011;48772;55.586;37.730;2023-04-06T14:34:02;9.45;;;1.77;;
62711;SDS011;48772;55.586;37.730;2023-04-06T14:36:29;5.80;;;1.70;;
62711;SDS011;48772;55.586;37.730;2023-04-06T14:39:05;5.30;;;1.70;;
62711;SDS011;48772;55.586;37.730;2023-04-06T14:41:32;11.38;;;2.17;;
62711;SDS011;48772;55.586;37.730;2023-04-06T14:43:59;3.00;;;1.80;;
62711;SDS011;48772;55.586;37.730;2023-04-06T14:46:25;9.48;;;3.00;;
62711;SDS011;48772;55.586;37.730;2023-04-06T14:48:54;10.10;;;1.95;;
62711;SDS011;48772;55.586;37.730;2023-04-06T14:51:25;6.70;;;1.85;;
62711;SDS011;48772;55.586;37.730;2023-04-06T14:53:54;13.68;;;2.50;;
62711;SDS011;48772;55.586;37.730;2023-04-06T14:56:20;5.90;;;1.42;;
62711;SDS011;48772;55.586;37.730;2023-04-06T14:58:47;3.92;;;1.70;;
62711;SDS011;48772;55.586;37.730;2023-04-06T15:01:13;4.65;;;1.48;;
62711;SDS011;48772;55.586;37.730;2023-04-06T15:03:39;4.45;;;2.17;;
62711;SDS011;48772;55.586;37.730;2023-04-06T15:06:04;9.07;;;1.70;;
62711;SDS011;48772;55.586;37.730;2023-04-06T15:08:32;6.57;;;1.63;;
62711;SDS011;48772;55.586;37.730;2023-04-06T15:10:58;6.50;;;1.88;;
62711;SDS011;48772;55.586;37.730;2023-04-06T15:13:25;5.22;;;1.85;;